Time;durP1;ratioP1;P1;durP2;ratioP2;P2;SDS_P1;SDS_P2;PMS_P1;PMS_P2;Temp;Humidity;BMP_temperature;BMP_pressure;BME280_temperature;BME280_humidity;BME280_pressure;Samples;Min_cycle;Max_cycle;Signal;HPM_P1;HPM_P2
2022/02/26 00:00:03;;;;;;;;;;;;;;;7.13;38.25;100604.94;4442358;32;35271;-79
2022/02/26 00:02:30;;;;;;;;;;;;;;;7.26;38.27;100611.09;4445435;32;33681;-80
2022/02/26 00:04:59;;;;;;;;;;;;;;;7.44;38.03;100609.84;4445078;32;34713;-81
2022/02/26 00:07:26;;;;;;;;;;;;;;;7.40;37.94;100613.66;4445513;32;34917;-80
2022/02/26 00:09:54;;;;;;;;;;;;;;;7.34;38.46;100621.16;4445560;32;33281;-80
2022/02/26 00:12:22;;;;;;;;;;;;;;;7.45;38.43;100616.00;4445813;32;33550;-80
2022/02/26 00:14:49;;;;;;;;;;;;;;;7.50;38.06;100625.31;4442740;32;36071;-81
2022/02/26 00:17:17;;;;;;;;;;;;;;;7.73;38.04;100621.09;4432941;32;33403;-80
2022/02/26 00:19:44;;;;;;;;;;;;;;;7.71;38.14;100622.97;4445366;32;33744;-80
2022/02/26 00:22:12;;;;;;;;;;;;;;;7.86;37.88;100620.13;4433209;32;32967;-80
2022/02/26 00:24:40;;;;;;;;;;;;;;;7.77;37.54;100617.25;4432501;32;34256;-80
2022/02/26 00:27:08;;;;;;;;;;;;;;;7.87;37.34;100621.81;4458399;32;35050;-80
2022/02/26 00:29:36;;;;;;;;;;;;;;;8.02;37.15;100618.06;4442821;32;34108;-80
2022/02/26 00:32:04;;;;;;;;;;;;;;;7.78;37.28;100622.47;4444757;32;33824;-80
2022/02/26 00:34:33;;;;;;;;;;;;;;;8.04;36.84;100621.50;4444059;32;35707;-81
2022/02/26 00:37:01;;;;;;;;;;;;;;;7.79;37.11;100625.94;4432605;32;32694;-80
2022/02/26 00:39:28;;;;;;;;;;;;;;;8.00;36.80;100633.25;4431257;32;34197;-80
2022/02/26 00:41:56;;;;;;;;;;;;;;;8.08;36.48;100625.59;4432711;32;33845;-81
2022/02/26 00:44:23;;;;;;;;;;;;;;;8.11;36.34;100629.84;4445426;32;36024;-80
2022/02/26 00:46:51;;;;;;;;;;;;;;;8.27;35.75;100636.63;4446862;32;34671;-80
2022/02/26 00:52:04;;;;;;;;;;;;;;;8.09;36.59;100640.53;4445540;32;34801;-80
2022/02/26 00:54:32;;;;;;;;;;;;;;;7.98;36.85;100639.59;4432599;32;33539;-79
2022/02/26 00:57:01;;;;;;;;;;;;;;;8.10;36.71;100641.41;4444003;32;34759;-80
2022/02/26 00:59:28;;;;;;;;;;;;;;;8.12;36.62;100636.84;4445361;32;33510;-81
2022/02/26 01:01:56;;;;;;;;;;;;;;;8.07;36.53;100636.31;4428678;32;33192;-81
2022/02/26 01:04:24;;;;;;;;;;;;;;;8.08;36.23;100646.81;4444168;32;34299;-80
2022/02/26 01:06:52;;;;;;;;;;;;;;;8.13;36.13;100635.88;4432826;32;34027;-80
2022/02/26 01:09:20;;;;;;;;;;;;;;;8.08;36.05;100644.16;4445455;32;33216;-80
2022/02/26 01:11:47;;;;;;;;;;;;;;;8.23;36.16;100639.59;4441831;32;34884;-80
2022/02/26 01:14:15;;;;;;;;;;;;;;;8.25;36.62;100643.84;4457820;32;34266;-81
2022/02/26 01:16:43;;;;;;;;;;;;;;;7.95;37.17;100634.53;4452066;32;32856;-80
2022/02/26 01:19:10;;;;;;;;;;;;;;;8.15;37.09;100640.13;4444472;32;33743;-81
2022/02/26 01:21:38;;;;;;;;;;;;;;;7.94;37.06;100631.00;4443133;32;34601;-80
2022/02/26 01:24:06;;;;;;;;;;;;;;;7.92;36.82;100632.94;4443039;32;34898;-80
2022/02/26 01:26:33;;;;;;;;;;;;;;;7.67;37.19;100638.25;4444744;32;33130;-79
2022/02/26 01:29:03;;;;;;;;;;;;;;;7.62;37.84;100635.06;4443238;32;31643;-80
2022/02/26 01:31:33;;;;;;;;;;;;;;;7.32;38.22;100637.16;4445000;32;33964;-79
2022/02/26 01:34:01;;;;;;;;;;;;;;;7.59;37.33;100624.69;4444609;32;36069;-80
2022/02/26 01:36:28;;;;;;;;;;;;;;;7.49;37.14;100622.78;4444664;32;33959;-80
2022/02/26 01:38:56;;;;;;;;;;;;;;;7.36;37.26;100627.22;4431723;32;31580;-81
2022/02/26 01:41:24;;;;;;;;;;;;;;;7.25;37.31;100624.44;4442062;32;34211;-80
2022/02/26 01:43:52;;;;;;;;;;;;;;;7.34;37.56;100624.66;4444996;32;35041;-80
2022/02/26 01:46:19;;;;;;;;;;;;;;;7.38;37.20;100620.00;4444751;32;34425;-80
2022/02/26 01:48:47;;;;;;;;;;;;;;;7.19;37.66;100619.56;4444912;32;33308;-81
2022/02/26 01:51:14;;;;;;;;;;;;;;;7.19;38.25;100628.34;4436137;32;32343;-80
2022/02/26 01:53:42;;;;;;;;;;;;;;;7.21;37.94;100615.88;4441373;32;37152;-81
2022/02/26 01:56:10;;;;;;;;;;;;;;;7.24;37.99;100614.78;4444628;32;34218;-81
2022/02/26 01:58:38;;;;;;;;;;;;;;;7.09;38.11;100610.56;4443390;32;34117;-81
2022/02/26 02:01:07;;;;;;;;;;;;;;;7.12;38.14;100623.56;4443729;32;33767;-81
2022/02/26 02:03:35;;;;;;;;;;;;;;;7.20;38.04;100629.19;4431951;32;34578;-80
2022/02/26 02:06:03;;;;;;;;;;;;;;;7.11;38.29;100629.81;4431995;32;32467;-80
2022/02/26 02:08:30;;;;;;;;;;;;;;;6.89;38.63;100634.84;4442267;32;33177;-80
2022/02/26 02:10:58;;;;;;;;;;;;;;;6.90;39.20;100632.06;4443286;32;33645;-80
2022/02/26 02:13:26;;;;;;;;;;;;;;;6.70;39.66;100634.34;4431732;32;34946;-80
2022/02/26 02:15:55;;;;;;;;;;;;;;;6.55;39.83;100638.84;4444244;32;35038;-81
2022/02/26 02:18:22;;;;;;;;;;;;;;;6.61;39.55;100646.34;4444993;32;33404;-80
2022/02/26 02:20:49;;;;;;;;;;;;;;;6.61;39.73;100645.53;4428926;32;35220;-81
2022/02/26 02:23:17;;;;;;;;;;;;;;;6.23;40.45;100649.75;4443885;32;35034;-80
2022/02/26 02:25:45;;;;;;;;;;;;;;;5.97;41.52;100655.81;4444430;32;33943;-81
2022/02/26 02:28:15;;;;;;;;;;;;;;;6.32;40.77;100662.34;4430074;32;33142;-80
2022/02/26 02:30:43;;;;;;;;;;;;;;;6.08;41.35;100655.97;4444663;32;33331;-81
2022/02/26 02:33:11;;;;;;;;;;;;;;;5.96;41.76;100659.41;4431982;32;34314;-81
2022/02/26 02:35:39;;;;;;;;;;;;;;;6.15;41.47;100658.13;4457027;32;34802;-80
2022/02/26 02:38:12;;;;;;;;;;;;;;;5.81;42.49;100661.19;4444369;32;32403;-80
2022/02/26 02:40:40;;;;;;;;;;;;;;;5.66;42.83;100663.84;4428243;32;32911;-80
2022/02/26 02:43:09;;;;;;;;;;;;;;;5.75;43.04;100668.56;4431724;32;35365;-81
2022/02/26 02:45:37;;;;;;;;;;;;;;;5.81;43.01;100671.75;4444031;32;35412;-81
2022/02/26 02:48:05;;;;;;;;;;;;;;;5.76;42.99;100678.19;4440540;32;31910;-79
2022/02/26 02:50:33;;;;;;;;;;;;;;;6.00;41.94;100674.97;4439262;32;35065;-81
2022/02/26 02:53:00;;;;;;;;;;;;;;;5.98;41.83;100681.28;4425453;32;34079;-80
2022/02/26 02:55:28;;;;;;;;;;;;;;;5.85;42.66;100685.59;4430536;32;33619;-81
2022/02/26 02:57:57;;;;;;;;;;;;;;;5.88;42.75;100688.88;4431715;32;31797;-80
2022/02/26 03:00:25;;;;;;;;;;;;;;;5.64;42.86;100690.34;4442792;32;33368;-81
2022/02/26 03:02:53;;;;;;;;;;;;;;;5.63;43.35;100685.16;4457151;32;36019;-80
2022/02/26 03:05:22;;;;;;;;;;;;;;;5.73;43.06;100688.94;4443370;32;34076;-80
2022/02/26 03:07:49;;;;;;;;;;;;;;;5.64;43.02;100702.69;4441403;32;31727;-80
2022/02/26 03:10:17;;;;;;;;;;;;;;;5.69;42.91;100698.00;4431114;32;32965;-80
2022/02/26 03:12:50;;;;;;;;;;;;;;;5.74;42.49;100701.19;4444133;32;34293;-80
2022/02/26 03:15:19;;;;;;;;;;;;;;;5.62;42.92;100696.66;4441578;32;34692;-80
2022/02/26 03:17:46;;;;;;;;;;;;;;;5.52;43.16;100703.44;4443895;32;32410;-80
2022/02/26 03:20:13;;;;;;;;;;;;;;;5.38;43.19;100697.25;4443796;32;33703;-80
2022/02/26 03:22:41;;;;;;;;;;;;;;;5.10;43.91;100700.63;4441585;32;34571;-80
2022/02/26 03:25:09;;;;;;;;;;;;;;;5.24;43.77;100706.00;4441907;32;35312;-80
2022/02/26 03:27:36;;;;;;;;;;;;;;;5.23;43.76;100696.38;4431043;32;33346;-80
2022/02/26 03:30:05;;;;;;;;;;;;;;;5.50;43.32;100694.75;4441289;32;34965;-80
2022/02/26 03:32:34;;;;;;;;;;;;;;;5.47;43.38;100699.38;4442736;32;35350;-80
2022/02/26 03:35:02;;;;;;;;;;;;;;;5.41;43.61;100691.81;4444988;32;34279;-80
2022/02/26 03:37:31;;;;;;;;;;;;;;;5.45;43.38;100699.44;4457445;32;33158;-80
2022/02/26 03:39:59;;;;;;;;;;;;;;;5.45;43.47;100706.53;4432189;32;34822;-80
2022/02/26 03:42:26;;;;;;;;;;;;;;;5.45;43.41;100710.00;4431488;32;35324;-80
2022/02/26 03:44:54;;;;;;;;;;;;;;;5.46;43.35;100713.50;4444977;32;35492;-81
2022/02/26 03:47:22;;;;;;;;;;;;;;;5.45;43.09;100715.28;4431923;32;31911;-80
2022/02/26 03:49:51;;;;;;;;;;;;;;;5.48;43.07;100720.38;4444772;32;33335;-80
2022/02/26 03:52:20;;;;;;;;;;;;;;;5.41;43.22;100723.47;4443694;32;34762;-80
2022/02/26 03:54:48;;;;;;;;;;;;;;;5.21;43.59;100727.28;4444537;32;35500;-79
2022/02/26 03:57:16;;;;;;;;;;;;;;;5.26;43.66;100732.28;4445421;32;32800;-80
2022/02/26 03:59:44;;;;;;;;;;;;;;;5.10;44.04;100728.81;4445558;32;33623;-80
2022/02/26 04:02:12;;;;;;;;;;;;;;;5.31;43.49;100735.50;4444182;32;34912;-79
2022/02/26 04:04:41;;;;;;;;;;;;;;;5.13;43.76;100729.50;4444400;32;35395;-80
2022/02/26 04:07:09;;;;;;;;;;;;;;;4.80;44.52;100746.38;4430881;32;33799;-80
2022/02/26 04:09:36;;;;;;;;;;;;;;;4.75;44.89;100741.34;4445387;32;33975;-80
2022/02/26 04:12:05;;;;;;;;;;;;;;;4.68;45.06;100742.63;4446415;32;36058;-80
2022/02/26 04:14:32;;;;;;;;;;;;;;;4.56;45.52;100747.72;4445741;32;34715;-79
2022/02/26 04:17:01;;;;;;;;;;;;;;;4.58;45.80;100741.44;4429514;32;34461;-79
2022/02/26 04:19:29;;;;;;;;;;;;;;;4.58;45.60;100746.69;4446858;32;34852;-79
2022/02/26 04:21:57;;;;;;;;;;;;;;;4.39;46.16;100742.50;4445199;32;36018;-79
2022/02/26 04:24:25;;;;;;;;;;;;;;;4.64;45.71;100750.78;4443369;32;34534;-80
2022/02/26 04:26:55;;;;;;;;;;;;;;;4.67;45.67;100753.25;4457593;32;33230;-80
2022/02/26 04:29:23;;;;;;;;;;;;;;;5.10;44.74;100755.19;4444142;32;34592;-79
2022/02/26 04:31:52;;;;;;;;;;;;;;;4.96;44.75;100763.00;4443891;32;36283;-80
2022/02/26 04:34:21;;;;;;;;;;;;;;;4.70;45.41;100758.38;4445139;32;34120;-79
2022/02/26 04:36:53;;;;;;;;;;;;;;;4.07;46.73;100774.97;4443657;32;34500;-79
2022/02/26 04:39:21;;;;;;;;;;;;;;;4.09;46.93;100779.25;4444731;32;33539;-80
2022/02/26 04:41:49;;;;;;;;;;;;;;;4.48;46.47;100778.88;4430793;32;36201;-80
2022/02/26 04:44:17;;;;;;;;;;;;;;;4.36;46.95;100784.81;4445492;32;33150;-79
2022/02/26 04:46:46;;;;;;;;;;;;;;;4.49;46.56;100781.44;4443088;32;34002;-79
2022/02/26 04:49:17;;;;;;;;;;;;;;;4.55;46.07;100785.53;4444448;32;35577;-80
2022/02/26 04:51:45;;;;;;;;;;;;;;;4.48;46.41;100779.75;4443768;32;35014;-81
2022/02/26 04:54:13;;;;;;;;;;;;;;;4.34;46.92;100781.44;4445189;32;34514;-80
2022/02/26 04:56:41;;;;;;;;;;;;;;;4.48;46.87;100785.03;4430799;32;33299;-80
2022/02/26 04:59:09;;;;;;;;;;;;;;;4.37;46.94;100783.88;4444361;32;33165;-80
2022/02/26 05:01:38;;;;;;;;;;;;;;;4.01;47.56;100786.69;4444277;32;35276;-80
2022/02/26 05:04:07;;;;;;;;;;;;;;;4.34;47.51;100794.59;4432063;32;35896;-80
2022/02/26 05:06:35;;;;;;;;;;;;;;;4.03;47.75;100797.97;4442885;32;32715;-79
2022/02/26 05:09:03;;;;;;;;;;;;;;;4.27;47.19;100796.69;4446661;32;34346;-80
2022/02/26 05:11:31;;;;;;;;;;;;;;;3.90;48.09;100791.66;4455797;32;34508;-80
2022/02/26 05:13:59;;;;;;;;;;;;;;;4.02;48.20;100793.66;4444296;32;35149;-79
2022/02/26 05:16:28;;;;;;;;;;;;;;;3.94;47.90;100792.31;4445291;32;34737;-80
2022/02/26 05:18:56;;;;;;;;;;;;;;;4.24;47.19;100790.75;4445004;32;32280;-80
2022/02/26 05:21:24;;;;;;;;;;;;;;;4.28;47.21;100798.41;4442529;32;35053;-79
2022/02/26 05:23:52;;;;;;;;;;;;;;;4.15;47.34;100796.50;4456853;32;34303;-80
2022/02/26 05:26:20;;;;;;;;;;;;;;;4.32;47.40;100802.56;4444152;32;32595;-80
2022/02/26 05:28:49;;;;;;;;;;;;;;;4.39;47.28;100803.94;4432023;32;33138;-80
2022/02/26 05:31:17;;;;;;;;;;;;;;;4.52;47.02;100807.63;4443997;32;34537;-80
2022/02/26 05:33:46;;;;;;;;;;;;;;;3.98;48.12;100801.78;4442579;32;34327;-80
2022/02/26 05:36:14;;;;;;;;;;;;;;;4.05;48.23;100798.75;4443102;32;33416;-80
2022/02/26 05:38:42;;;;;;;;;;;;;;;4.35;47.40;100802.41;4442558;32;34057;-79
2022/02/26 05:41:09;;;;;;;;;;;;;;;4.14;48.04;100807.97;4438486;32;35344;-79
2022/02/26 05:43:37;;;;;;;;;;;;;;;4.33;47.17;100816.59;4432825;32;33244;-79
2022/02/26 05:46:04;;;;;;;;;;;;;;;3.94;48.37;100808.09;4434161;32;33108;-79
2022/02/26 05:48:32;;;;;;;;;;;;;;;4.40;47.51;100805.66;4439327;32;33872;-79
2022/02/26 05:51:01;;;;;;;;;;;;;;;4.39;47.33;100814.50;4443708;32;34892;-80
2022/02/26 05:53:29;;;;;;;;;;;;;;;4.26;47.67;100820.47;4430516;32;34004;-79
2022/02/26 05:55:57;;;;;;;;;;;;;;;4.52;47.20;100823.44;4456090;32;32687;-79
2022/02/26 05:58:25;;;;;;;;;;;;;;;4.55;47.31;100830.34;4429958;32;32735;-79
2022/02/26 06:00:55;;;;;;;;;;;;;;;4.55;46.98;100831.16;4443436;32;34623;-80
2022/02/26 06:03:23;;;;;;;;;;;;;;;4.63;46.78;100831.62;4443226;32;33942;-80
2022/02/26 06:05:50;;;;;;;;;;;;;;;4.68;46.75;100834.00;4430398;32;31497;-80
2022/02/26 06:08:18;;;;;;;;;;;;;;;4.39;47.28;100842.59;4430102;32;32190;-80
2022/02/26 06:10:45;;;;;;;;;;;;;;;4.44;47.07;100849.34;4430226;32;34759;-79
2022/02/26 06:13:13;;;;;;;;;;;;;;;4.01;48.26;100849.88;4442663;32;34704;-80
2022/02/26 06:15:40;;;;;;;;;;;;;;;4.19;48.51;100841.03;4442832;32;32979;-79
2022/02/26 06:18:08;;;;;;;;;;;;;;;4.28;47.98;100852.84;4442545;32;33367;-80
2022/02/26 06:20:35;;;;;;;;;;;;;;;4.16;47.90;100851.69;4442753;32;35069;-80
2022/02/26 06:23:03;;;;;;;;;;;;;;;4.33;47.66;100854.31;4429023;32;33813;-79
2022/02/26 06:25:31;;;;;;;;;;;;;;;4.45;47.26;100853.66;4442253;32;32815;-80
2022/02/26 06:27:58;;;;;;;;;;;;;;;4.17;48.25;100852.56;4443218;32;34237;-80
2022/02/26 06:30:28;;;;;;;;;;;;;;;4.27;48.11;100856.41;4430003;32;33602;-79
2022/02/26 06:32:56;;;;;;;;;;;;;;;4.63;47.46;100857.13;4442915;32;34434;-80
2022/02/26 06:35:25;;;;;;;;;;;;;;;4.64;47.18;100853.56;4443007;32;32899;-79
2022/02/26 06:37:52;;;;;;;;;;;;;;;4.79;46.96;100868.56;4442853;32;34349;-80
2022/02/26 06:40:20;;;;;;;;;;;;;;;4.79;47.27;100872.03;4442796;32;34740;-80
2022/02/26 06:42:48;;;;;;;;;;;;;;;5.00;46.11;100873.50;4443117;32;34175;-80
2022/02/26 06:45:15;;;;;;;;;;;;;;;4.73;47.67;100879.44;4442992;32;33083;-80
2022/02/26 06:47:42;;;;;;;;;;;;;;;4.84;47.12;100880.56;4441982;32;34000;-80
2022/02/26 06:50:10;;;;;;;;;;;;;;;5.08;46.64;100879.22;4442738;32;34800;-80
2022/02/26 06:52:37;;;;;;;;;;;;;;;5.24;46.28;100881.88;4429633;32;33869;-80
2022/02/26 06:55:05;;;;;;;;;;;;;;;5.29;46.06;100883.31;4443299;32;32635;-79
2022/02/26 06:57:45;;;;;;;;;;;;;;;5.04;46.96;100893.53;4431431;32;33190;-79
2022/02/26 07:00:13;;;;;;;;;;;;;;;5.28;46.20;100888.69;4429860;32;34024;-80
2022/02/26 07:02:40;;;;;;;;;;;;;;;5.73;44.63;100893.09;4442321;32;35079;-80
2022/02/26 07:05:08;;;;;;;;;;;;;;;5.68;45.07;100894.28;4443031;32;34984;-80
2022/02/26 07:07:36;;;;;;;;;;;;;;;5.61;44.99;100882.38;4444409;32;34249;-80
2022/02/26 07:10:04;;;;;;;;;;;;;;;5.76;45.00;100884.13;4443003;32;35132;-80
2022/02/26 07:12:32;;;;;;;;;;;;;;;5.98;44.34;100888.09;4431163;32;32905;-80
2022/02/26 07:14:59;;;;;;;;;;;;;;;6.12;44.90;100884.66;4444002;32;33272;-80
2022/02/26 07:17:27;;;;;;;;;;;;;;;6.33;44.68;100891.34;4431204;32;33367;-80
2022/02/26 07:19:54;;;;;;;;;;;;;;;6.16;44.56;100891.50;4434744;32;35293;-80
2022/02/26 07:22:22;;;;;;;;;;;;;;;6.33;44.39;100894.81;4435888;32;35245;-81
2022/02/26 07:24:49;;;;;;;;;;;;;;;6.48;43.57;100895.69;4451393;32;32564;-80
2022/02/26 07:27:18;;;;;;;;;;;;;;;6.60;43.47;100895.81;4426203;32;33007;-80
2022/02/26 07:29:45;;;;;;;;;;;;;;;6.56;43.64;100898.72;4446520;32;35353;-80
2022/02/26 07:32:12;;;;;;;;;;;;;;;6.20;44.14;100911.50;4444008;32;33080;-80
2022/02/26 07:34:40;;;;;;;;;;;;;;;6.59;43.40;100907.34;4445981;32;33245;-81
2022/02/26 07:37:07;;;;;;;;;;;;;;;6.71;43.16;100914.53;4445855;32;34023;-81
2022/02/26 07:39:35;;;;;;;;;;;;;;;6.81;43.32;100906.88;4444075;32;35198;-80
2022/02/26 07:42:03;;;;;;;;;;;;;;;6.72;44.19;100905.63;4444565;32;34953;-80
2022/02/26 07:44:31;;;;;;;;;;;;;;;6.68;42.67;100911.19;4444351;32;33302;-81
2022/02/26 07:46:58;;;;;;;;;;;;;;;6.90;42.10;100908.97;4444181;32;34243;-80
2022/02/26 07:49:26;;;;;;;;;;;;;;;6.85;42.40;100908.37;4443668;32;35190;-80
2022/02/26 07:51:55;;;;;;;;;;;;;;;6.96;42.25;100911.22;4444143;32;33095;-80
2022/02/26 07:54:22;;;;;;;;;;;;;;;7.12;42.15;100906.69;4445629;32;34017;-80
2022/02/26 07:56:49;;;;;;;;;;;;;;;6.76;43.26;100911.59;4431164;32;32173;-80
2022/02/26 07:59:19;;;;;;;;;;;;;;;6.92;42.39;100913.19;4445330;32;35144;-80
2022/02/26 08:01:46;;;;;;;;;;;;;;;7.37;43.08;100914.78;4446146;32;34474;-80
2022/02/26 08:04:15;;;;;;;;;;;;;;;7.49;41.91;100914.87;4456512;32;33055;-80
2022/02/26 08:06:42;;;;;;;;;;;;;;;7.66;42.05;100919.06;4456825;32;33008;-80
2022/02/26 08:09:09;;;;;;;;;;;;;;;7.72;41.36;100914.22;4443932;32;35675;-80
2022/02/26 08:11:39;;;;;;;;;;;;;;;7.70;41.02;100918.78;4443801;32;35178;-80
2022/02/26 08:14:07;;;;;;;;;;;;;;;7.71;41.97;100923.12;4442918;32;32954;-80
2022/02/26 08:16:34;;;;;;;;;;;;;;;7.77;40.69;100913.94;4443862;32;34993;-80
2022/02/26 08:19:03;;;;;;;;;;;;;;;8.35;40.54;100917.09;4443721;32;35415;-80
2022/02/26 08:21:34;;;;;;;;;;;;;;;8.30;40.08;100921.87;4431079;32;32887;-81
2022/02/26 08:24:01;;;;;;;;;;;;;;;8.30;40.65;100924.53;4456998;32;32707;-80
2022/02/26 08:26:29;;;;;;;;;;;;;;;8.61;39.86;100925.84;4443835;32;33860;-80
2022/02/26 08:28:57;;;;;;;;;;;;;;;8.91;39.08;100925.53;4443627;32;35269;-80
2022/02/26 08:31:25;;;;;;;;;;;;;;;8.71;38.82;100918.13;4441280;32;33105;-82
2022/02/26 08:33:52;;;;;;;;;;;;;;;8.63;39.41;100920.44;4436002;32;34641;-82
2022/02/26 08:36:20;;;;;;;;;;;;;;;9.10;39.01;100918.81;4450260;32;34621;-82
2022/02/26 08:38:49;;;;;;;;;;;;;;;9.25;38.65;100927.53;4438442;32;34983;-82
2022/02/26 08:41:17;;;;;;;;;;;;;;;8.98;38.88;100924.16;4437086;32;34886;-81
2022/02/26 08:43:45;;;;;;;;;;;;;;;9.50;37.26;100923.03;4454714;32;33346;-80
2022/02/26 08:46:12;;;;;;;;;;;;;;;9.38;38.48;100918.56;4443424;32;34019;-81
2022/02/26 08:48:40;;;;;;;;;;;;;;;9.46;38.47;100928.66;4417826;32;35062;-80
2022/02/26 08:51:07;;;;;;;;;;;;;;;9.49;38.15;100916.00;4445364;32;34379;-81
2022/02/26 08:53:35;;;;;;;;;;;;;;;9.95;38.00;100922.34;4456847;32;33408;-82
2022/02/26 08:56:03;;;;;;;;;;;;;;;9.95;36.99;100929.44;4442900;32;33267;-81
2022/02/26 08:58:30;;;;;;;;;;;;;;;10.13;36.12;100921.00;4419300;32;33985;-81
2022/02/26 09:00:57;;;;;;;;;;;;;;;10.20;36.22;100921.37;4445152;32;35332;-81
2022/02/26 09:03:25;;;;;;;;;;;;;;;10.11;36.40;100924.72;4443715;32;33812;-80
2022/02/26 09:05:53;;;;;;;;;;;;;;;10.49;36.46;100931.50;4430690;32;32504;-81
2022/02/26 09:08:20;;;;;;;;;;;;;;;10.51;34.84;100926.94;4443304;32;33825;-79
2022/02/26 09:10:48;;;;;;;;;;;;;;;10.38;35.82;100930.66;4430829;32;33213;-80
2022/02/26 09:13:16;;;;;;;;;;;;;;;10.36;35.93;100933.41;4430576;32;32355;-80
2022/02/26 09:15:43;;;;;;;;;;;;;;;10.46;35.83;100934.41;4444000;32;33416;-81
2022/02/26 09:18:11;;;;;;;;;;;;;;;10.66;35.00;100927.59;4430911;32;35771;-81
2022/02/26 09:20:39;;;;;;;;;;;;;;;10.77;35.55;100936.41;4442216;32;33782;-81
2022/02/26 09:23:06;;;;;;;;;;;;;;;11.02;34.39;100928.25;4430515;32;32395;-80
2022/02/26 09:25:33;;;;;;;;;;;;;;;10.97;33.96;100932.22;4443371;32;34501;-81
2022/02/26 09:28:02;;;;;;;;;;;;;;;11.04;33.50;100926.28;4428350;32;33587;-80
2022/02/26 09:30:30;;;;;;;;;;;;;;;10.95;34.98;100935.00;4453610;32;34422;-80
2022/02/26 09:32:58;;;;;;;;;;;;;;;11.20;32.82;100934.78;4452201;32;32835;-80
2022/02/26 09:35:26;;;;;;;;;;;;;;;11.44;33.41;100925.69;4445167;32;34172;-81
2022/02/26 09:37:55;;;;;;;;;;;;;;;11.51;32.41;100929.56;4443599;32;35402;-81
2022/02/26 09:40:24;;;;;;;;;;;;;;;10.80;33.21;100928.22;4443819;32;34609;-81
2022/02/26 09:42:51;;;;;;;;;;;;;;;11.19;34.23;100932.22;4443308;32;33210;-81
2022/02/26 09:45:19;;;;;;;;;;;;;;;11.68;31.86;100928.25;4443592;32;34154;-80
2022/02/26 09:47:47;;;;;;;;;;;;;;;11.51;33.89;100929.56;4430413;32;34435;-81
2022/02/26 09:50:14;;;;;;;;;;;;;;;11.59;32.73;100935.16;4443771;32;34554;-81
2022/02/26 09:52:44;;;;;;;;;;;;;;;11.39;33.28;100935.03;4430569;32;32643;-81
2022/02/26 09:55:12;;;;;;;;;;;;;;;11.67;32.78;100937.22;4443441;32;32455;-81
2022/02/26 09:57:39;;;;;;;;;;;;;;;11.58;32.00;100941.47;4443541;32;36004;-80
2022/02/26 10:00:07;;;;;;;;;;;;;;;11.12;34.61;100947.84;4443118;32;34865;-81
2022/02/26 10:02:35;;;;;;;;;;;;;;;11.37;32.97;100939.63;4443395;32;33249;-81
2022/02/26 10:05:06;;;;;;;;;;;;;;;11.89;31.62;100939.81;4456399;32;34398;-80
2022/02/26 10:07:33;;;;;;;;;;;;;;;11.97;32.35;100942.72;4443291;32;34428;-81
2022/02/26 10:10:05;;;;;;;;;;;;;;;11.89;32.01;100948.69;4430734;32;33335;-81
2022/02/26 10:12:33;;;;;;;;;;;;;;;12.21;31.07;100946.03;4430789;32;32836;-80
2022/02/26 10:15:01;;;;;;;;;;;;;;;12.02;31.93;100943.19;4430826;32;33785;-81
2022/02/26 10:17:33;;;;;;;;;;;;;;;11.62;31.34;100955.41;4443049;32;33986;-81
2022/02/26 10:20:15;;;;;;;;;;;;;;;12.24;31.14;100951.13;4454396;32;34023;-81
2022/02/26 10:22:49;;;;;;;;;;;;;;;12.33;29.97;100950.34;4450215;32;33009;-81
2022/02/26 10:25:36;;;;;;;;;;;;;;;12.37;30.08;100952.66;4450646;32;33998;-81
2022/02/26 10:28:04;;;;;;;;;;;;;;;12.26;32.06;100952.69;4437427;32;35800;-81
2022/02/26 10:30:33;;;;;;;;;;;;;;;12.07;32.12;100949.84;4442524;32;34212;-82
2022/02/26 10:33:10;;;;;;;;;;;;;;;12.65;29.83;100948.53;4456054;32;32931;-81
2022/02/26 10:35:45;;;;;;;;;;;;;;;12.25;32.03;100950.13;4456062;32;33427;-81
2022/02/26 10:38:20;;;;;;;;;;;;;;;12.80;28.62;100945.41;4442933;32;35037;-82
2022/02/26 10:40:49;;;;;;;;;;;;;;;12.03;30.10;100950.22;4455975;32;32945;-81
2022/02/26 10:43:35;;;;;;;;;;;;;;;11.73;31.20;100944.72;4455639;32;32654;-81
2022/02/26 10:46:35;;;;;;;;;;;;;;;11.91;30.10;100940.56;4455433;32;34501;-81
2022/02/26 10:49:04;;;;;;;;;;;;;;;12.06;30.80;100944.63;4395602;32;34545;-81
2022/02/26 10:51:42;;;;;;;;;;;;;;;12.27;31.29;100941.03;4442409;32;34874;-82
2022/02/26 10:54:29;;;;;;;;;;;;;;;12.59;30.72;100941.87;4425681;32;33012;-81
2022/02/26 10:57:00;;;;;;;;;;;;;;;12.25;29.24;100950.13;4442616;32;34295;-82
2022/02/26 10:59:31;;;;;;;;;;;;;;;11.93;33.64;100944.78;4430105;32;33593;-82
2022/02/26 11:02:00;;;;;;;;;;;;;;;12.60;29.59;100940.91;4452142;32;34148;-81
2022/02/26 11:04:29;;;;;;;;;;;;;;;12.53;30.92;100938.84;4440345;32;33312;-82
2022/02/26 11:06:57;;;;;;;;;;;;;;;12.98;30.83;100943.00;4442518;32;33533;-83
2022/02/26 11:09:25;;;;;;;;;;;;;;;13.32;28.91;100939.94;4430177;32;35209;-82
2022/02/26 11:11:53;;;;;;;;;;;;;;;13.30;29.00;100941.06;4429494;32;35381;-82
2022/02/26 11:14:21;;;;;;;;;;;;;;;13.40;29.94;100936.62;4429887;32;32257;-82
2022/02/26 11:16:50;;;;;;;;;;;;;;;13.80;28.33;100932.09;4429708;32;32580;-82
2022/02/26 11:19:20;;;;;;;;;;;;;;;13.94;28.95;100926.31;4442044;32;35135;-82
2022/02/26 11:21:48;;;;;;;;;;;;;;;13.70;27.19;100918.69;4442472;32;34159;-81
2022/02/26 11:24:17;;;;;;;;;;;;;;;13.80;26.78;100924.06;4442538;32;32610;-82
2022/02/26 11:26:45;;;;;;;;;;;;;;;13.81;29.39;100923.06;4442265;32;33865;-82
2022/02/26 11:29:13;;;;;;;;;;;;;;;13.94;27.51;100916.50;4429541;32;34154;-82
2022/02/26 11:31:41;;;;;;;;;;;;;;;13.62;27.21;100912.34;4442318;32;34534;-82
2022/02/26 11:34:09;;;;;;;;;;;;;;;13.68;27.79;100917.97;4429210;32;31732;-83
2022/02/26 11:36:46;;;;;;;;;;;;;;;14.15;28.17;100913.69;4442092;32;33428;-81
2022/02/26 11:39:40;;;;;;;;;;;;;;;14.25;25.75;100912.72;4437949;32;34493;-82
2022/02/26 11:42:17;;;;;;;;;;;;;;;14.35;26.91;100907.41;4442109;32;35461;-82
2022/02/26 11:44:46;;;;;;;;;;;;;;;14.55;26.91;100908.06;4441995;32;32894;-82
2022/02/26 11:47:15;;;;;;;;;;;;;;;14.20;26.07;100904.31;4429128;32;34036;-82
2022/02/26 11:50:01;;;;;;;;;;;;;;;14.24;26.61;100902.19;4441821;32;35436;-83
2022/02/26 11:52:43;;;;;;;;;;;;;;;13.98;27.27;100899.16;4454789;32;35451;-82
2022/02/26 11:55:29;;;;;;;;;;;;;;;14.19;26.92;100901.75;4429541;32;31821;-82
2022/02/26 11:58:00;;;;;;;;;;;;;;;14.34;27.89;100900.34;4456628;32;34019;-82
2022/02/26 12:00:32;;;;;;;;;;;;;;;14.24;27.34;100896.84;4439646;32;35273;-83
2022/02/26 12:03:14;;;;;;;;;;;;;;;14.45;26.67;100899.22;4441942;32;32588;-82
2022/02/26 12:05:42;;;;;;;;;;;;;;;14.86;25.82;100892.66;4438402;32;35326;-82
2022/02/26 12:08:11;;;;;;;;;;;;;;;13.92;26.48;100899.75;4457074;32;34869;-82
2022/02/26 12:10:56;;;;;;;;;;;;;;;14.84;26.32;100900.00;4432122;32;34722;-83
2022/02/26 12:13:24;;;;;;;;;;;;;;;14.84;24.51;100898.16;4431358;32;33392;-82
2022/02/26 12:16:10;;;;;;;;;;;;;;;14.49;25.67;100894.41;4443883;32;32496;-83
2022/02/26 12:18:42;;;;;;;;;;;;;;;14.41;26.38;100891.59;4437149;32;34035;-82
2022/02/26 12:21:14;;;;;;;;;;;;;;;14.11;26.58;100894.41;4437757;32;35591;-82
2022/02/26 12:24:04;;;;;;;;;;;;;;;14.28;27.32;100895.56;4445988;32;35436;-82
2022/02/26 12:26:43;;;;;;;;;;;;;;;14.05;29.10;100896.81;4443815;32;34079;-82
2022/02/26 12:29:30;;;;;;;;;;;;;;;14.36;27.93;100899.25;4420134;32;32903;-82
2022/02/26 12:31:58;;;;;;;;;;;;;;;14.53;27.33;100894.00;4448265;32;33921;-82
2022/02/26 12:34:26;;;;;;;;;;;;;;;14.96;27.11;100891.66;4455807;32;35441;-83
2022/02/26 12:37:12;;;;;;;;;;;;;;;15.11;27.35;100886.66;4443573;32;32828;-82
2022/02/26 12:39:41;;;;;;;;;;;;;;;14.64;27.85;100893.00;4456431;32;33560;-82
2022/02/26 12:42:09;;;;;;;;;;;;;;;14.64;26.87;100893.84;4444211;32;34819;-82
2022/02/26 12:44:37;;;;;;;;;;;;;;;14.98;27.54;100887.00;4444332;32;34737;-83
2022/02/26 12:47:07;;;;;;;;;;;;;;;14.84;26.08;100894.66;4444130;32;33289;-82
2022/02/26 12:49:35;;;;;;;;;;;;;;;14.66;26.49;100891.03;4444184;32;34165;-83
2022/02/26 12:52:04;;;;;;;;;;;;;;;14.88;25.32;100891.53;4443956;32;34232;-82
2022/02/26 12:54:36;;;;;;;;;;;;;;;14.70;25.44;100890.59;4444476;32;36024;-82